createdAt,value
2018-01-04T00:01:23.048Z,6.20
2018-01-04T00:03:51.404Z,6.30
2018-01-04T00:06:19.711Z,6.30
2018-01-04T00:08:48.078Z,6.20
2018-01-04T00:11:16.290Z,6.20
2018-01-04T00:13:44.590Z,6.20
2018-01-04T00:16:12.846Z,6.20
2018-01-04T00:18:41.175Z,6.30
2018-01-04T00:21:09.681Z,6.30
2018-01-04T00:23:37.927Z,6.30
2018-01-04T00:26:06.183Z,6.30
2018-01-04T00:28:35.330Z,6.30
2018-01-04T00:31:03.558Z,6.20
2018-01-04T00:33:33.067Z,6.30
2018-01-04T00:36:01.307Z,6.30
2018-01-04T00:38:29.654Z,6.30
2018-01-04T00:40:57.939Z,6.30
2018-01-04T00:43:26.235Z,6.30
2018-01-04T00:45:55.278Z,6.30
2018-01-04T00:48:23.560Z,6.30
2018-01-04T00:50:51.860Z,6.30
2018-01-04T00:53:20.153Z,6.30
2018-01-04T00:55:48.412Z,6.30
2018-01-04T00:58:16.686Z,6.30
2018-01-04T01:00:45.246Z,6.30
2018-01-04T01:03:13.634Z,6.30
2018-01-04T01:05:41.876Z,6.30
2018-01-04T01:08:10.478Z,6.30
2018-01-04T01:10:38.856Z,6.30
2018-01-04T01:13:07.205Z,6.40
2018-01-04T01:15:36.255Z,6.40
2018-01-04T01:18:04.706Z,6.40
2018-01-04T01:20:33.377Z,6.40
2018-01-04T01:23:01.608Z,6.40
2018-01-04T01:25:30.023Z,6.40
2018-01-04T01:27:58.446Z,6.40
2018-01-04T01:30:26.732Z,6.30
2018-01-04T01:32:55.030Z,6.40
2018-01-04T01:35:23.480Z,6.30
2018-01-04T01:37:51.789Z,6.30
2018-01-04T01:40:21.045Z,6.20
2018-01-04T01:42:49.316Z,6.10
2018-01-04T01:45:17.595Z,6.20
2018-01-04T01:47:45.883Z,6.10
2018-01-04T01:50:14.191Z,6.10
2018-01-04T01:52:42.493Z,6.10
2018-01-04T01:55:10.907Z,6.00
2018-01-04T01:57:39.965Z,6.00
2018-01-04T02:00:09.090Z,5.90
2018-01-04T02:02:37.395Z,5.90
2018-01-04T02:05:05.638Z,5.90
2018-01-04T02:07:33.890Z,5.80
2018-01-04T02:10:02.508Z,5.80
2018-01-04T02:12:30.880Z,5.90
2018-01-04T02:14:59.182Z,5.80
2018-01-04T02:17:28.515Z,5.70
2018-01-04T02:20:08.682Z,5.70
2018-01-04T02:25:48.426Z,5.60
2018-01-04T02:28:28.355Z,5.60
2018-01-04T02:31:09.178Z,5.60
2018-01-04T02:33:49.227Z,5.60
2018-01-04T02:36:30.132Z,5.60
2018-01-04T02:39:10.374Z,5.60
2018-01-04T02:41:51.690Z,5.50
2018-01-04T02:47:18.870Z,5.40
2018-01-04T02:49:48.010Z,5.50
2018-01-04T02:52:16.476Z,5.40
2018-01-04T02:54:44.847Z,5.50
2018-01-04T02:57:13.277Z,5.50
2018-01-04T02:59:41.619Z,5.50
2018-01-04T03:02:10.716Z,5.50
2018-01-04T03:04:38.984Z,5.50
2018-01-04T03:07:07.267Z,5.50
2018-01-04T03:09:36.503Z,5.40
2018-01-04T03:12:04.941Z,5.40
2018-01-04T03:14:33.399Z,5.40
2018-01-04T03:17:01.650Z,5.40
2018-01-04T03:19:30.798Z,5.40
2018-01-04T03:22:04.878Z,5.40
2018-01-04T03:24:38.660Z,5.50
2018-01-04T03:27:12.704Z,5.50
2018-01-04T03:29:41.071Z,5.50
2018-01-04T03:32:15.764Z,5.50
2018-01-04T03:34:49.806Z,5.50
2018-01-04T03:37:24.509Z,5.50
2018-01-04T03:39:58.446Z,5.40
2018-01-04T03:42:33.177Z,5.50
2018-01-04T03:45:07.867Z,5.50
2018-01-04T03:47:41.766Z,5.50
2018-01-04T03:50:15.786Z,5.50
2018-01-04T03:52:44.100Z,5.50
2018-01-04T03:55:18.824Z,5.50
2018-01-04T03:57:53.529Z,5.60
2018-01-04T04:00:27.521Z,5.50
2018-01-04T04:02:56.905Z,5.60
2018-01-04T04:05:30.953Z,5.60
2018-01-04T04:08:04.696Z,5.60
2018-01-04T04:10:33.064Z,5.60
2018-01-04T04:13:01.488Z,5.60
2018-01-04T04:15:29.938Z,5.60
2018-01-04T04:17:58.244Z,5.60
2018-01-04T04:20:26.964Z,5.60
2018-01-04T04:22:56.102Z,5.70
2018-01-04T04:25:24.712Z,5.70
2018-01-04T04:27:53.017Z,5.70
2018-01-04T04:30:22.288Z,5.60
2018-01-04T04:32:50.523Z,5.60
2018-01-04T04:35:18.902Z,5.60
2018-01-04T04:37:47.324Z,5.60
2018-01-04T04:40:15.554Z,5.60
2018-01-04T04:42:44.021Z,5.60
2018-01-04T04:45:13.184Z,5.60
2018-01-04T04:47:41.411Z,5.60
2018-01-04T04:50:09.726Z,5.60
2018-01-04T04:52:37.991Z,5.60
2018-01-04T04:55:06.254Z,5.70
2018-01-04T04:57:34.750Z,5.60
2018-01-04T05:00:02.996Z,5.60
2018-01-04T05:02:31.460Z,5.60
2018-01-04T05:05:00.475Z,5.70
2018-01-04T05:07:29.626Z,5.70
2018-01-04T05:09:57.856Z,5.70
2018-01-04T05:12:26.158Z,5.70
2018-01-04T05:14:54.590Z,5.60
2018-01-04T05:17:24.007Z,5.60
2018-01-04T05:19:52.375Z,5.60
2018-01-04T05:22:21.458Z,5.50
2018-01-04T05:24:49.678Z,5.40
2018-01-04T05:27:18.069Z,5.40
2018-01-04T05:29:46.370Z,5.40
2018-01-04T05:32:14.694Z,5.40
2018-01-04T05:34:42.983Z,5.40
2018-01-04T05:37:12.065Z,5.40
2018-01-04T05:39:41.270Z,5.40
2018-01-04T05:42:09.593Z,5.40
2018-01-04T05:44:37.865Z,5.50
2018-01-04T05:47:06.141Z,5.50
2018-01-04T05:49:34.378Z,5.50
2018-01-04T05:52:02.656Z,5.50
2018-01-04T05:54:31.835Z,5.50
2018-01-04T05:57:00.083Z,5.50
2018-01-04T05:59:28.334Z,5.60
2018-01-04T06:01:56.582Z,5.70
2018-01-04T06:04:24.816Z,5.80
2018-01-04T06:06:54.042Z,5.80
2018-01-04T06:09:22.506Z,5.80
2018-01-04T06:11:50.738Z,5.90
2018-01-04T06:14:19.185Z,5.80
2018-01-04T06:16:47.504Z,5.90
2018-01-04T06:19:15.823Z,5.80
2018-01-04T06:21:45.233Z,5.70
2018-01-04T06:24:14.430Z,5.70
2018-01-04T06:26:43.565Z,5.60
2018-01-04T06:29:11.908Z,5.60
2018-01-04T06:31:40.175Z,5.60
2018-01-04T06:34:09.194Z,5.70
2018-01-04T06:36:37.468Z,5.70
2018-01-04T06:39:05.942Z,5.70
2018-01-04T06:41:34.267Z,5.70
2018-01-04T06:44:02.682Z,5.80
2018-01-04T06:46:30.930Z,5.70
2018-01-04T06:48:59.261Z,5.70
2018-01-04T06:51:27.724Z,5.70
2018-01-04T06:53:56.939Z,5.70
2018-01-04T06:56:25.250Z,5.70
2018-01-04T06:58:53.563Z,5.70
2018-01-04T07:01:22.579Z,5.70
2018-01-04T07:03:50.949Z,5.70
2018-01-04T07:06:19.253Z,5.70
2018-01-04T07:08:47.507Z,5.70
2018-01-04T07:11:15.905Z,5.60
2018-01-04T07:13:44.315Z,5.60
2018-01-04T07:16:12.614Z,5.70
2018-01-04T07:18:41.647Z,5.70
2018-01-04T07:21:09.895Z,5.60
2018-01-04T07:23:38.974Z,5.70
2018-01-04T07:26:07.279Z,5.70
2018-01-04T07:28:36.476Z,5.70
2018-01-04T07:31:05.604Z,5.70
2018-01-04T07:33:34.044Z,5.70
2018-01-04T07:36:03.490Z,5.70
2018-01-04T07:38:31.807Z,5.70
2018-01-04T07:41:00.109Z,5.70
2018-01-04T07:43:29.208Z,5.80
2018-01-04T07:45:57.629Z,5.80
2018-01-04T07:48:25.891Z,5.80
2018-01-04T07:50:54.171Z,5.80
2018-01-04T07:53:22.519Z,5.90
2018-01-04T07:55:50.838Z,5.90
2018-01-04T07:58:19.094Z,5.90
2018-01-04T08:00:47.415Z,5.90
2018-01-04T08:03:15.702Z,5.90
2018-01-04T08:05:44.174Z,5.90
2018-01-04T08:08:12.513Z,5.90
2018-01-04T08:10:40.746Z,5.90
2018-01-04T08:13:09.793Z,6.00
2018-01-04T08:15:38.115Z,6.00
2018-01-04T08:18:07.436Z,6.00
2018-01-04T08:20:35.791Z,6.00
2018-01-04T08:23:04.122Z,6.00
2018-01-04T08:25:32.444Z,6.10
2018-01-04T08:28:01.603Z,6.20
2018-01-04T08:30:29.930Z,6.20
2018-01-04T08:32:58.941Z,6.30
2018-01-04T08:35:27.266Z,6.30
2018-01-04T08:37:55.654Z,6.30
2018-01-04T08:40:24.079Z,6.30
2018-01-04T08:42:52.450Z,6.30
2018-01-04T08:45:20.726Z,6.30
2018-01-04T08:47:49.056Z,6.30
2018-01-04T08:50:17.489Z,6.30
2018-01-04T08:52:46.703Z,6.40
2018-01-04T08:55:14.981Z,6.40
2018-01-04T08:57:43.271Z,6.40
2018-01-04T09:00:12.278Z,6.40
2018-01-04T09:02:40.820Z,6.40
2018-01-04T09:05:09.091Z,6.50
2018-01-04T09:07:37.308Z,6.50
2018-01-04T09:10:05.668Z,6.50
2018-01-04T09:12:34.052Z,6.50
2018-01-04T09:15:02.383Z,6.60
2018-01-04T09:17:30.634Z,6.60
2018-01-04T09:19:59.054Z,6.60
2018-01-04T09:22:27.283Z,6.60
2018-01-04T09:24:55.823Z,6.60
2018-01-04T09:27:24.847Z,6.60
2018-01-04T09:29:53.144Z,6.50
2018-01-04T09:32:21.614Z,6.70
2018-01-04T09:34:49.952Z,6.70
2018-01-04T09:37:18.206Z,6.80
2018-01-04T09:39:47.207Z,6.90
2018-01-04T09:42:16.264Z,6.90
2018-01-04T09:44:44.722Z,6.90
2018-01-04T09:47:13.982Z,7.00
2018-01-04T09:49:43.061Z,7.20
2018-01-04T09:52:12.230Z,7.20
2018-01-04T09:54:40.515Z,7.30
2018-01-04T09:57:08.773Z,7.30
2018-01-04T09:59:37.098Z,7.30
2018-01-04T10:02:05.366Z,7.30
2018-01-04T10:04:33.650Z,7.40
2018-01-04T10:07:02.802Z,7.30
2018-01-04T10:09:31.081Z,7.20
2018-01-04T10:11:59.718Z,7.10
2018-01-04T10:14:28.739Z,7.00
2018-01-04T10:16:57.003Z,7.10
2018-01-04T10:19:25.374Z,7.00
2018-01-04T10:21:54.394Z,7.10
2018-01-04T10:24:22.787Z,7.10
2018-01-04T10:26:51.069Z,7.00
2018-01-04T10:29:19.522Z,7.10
2018-01-04T10:31:47.804Z,7.10
2018-01-04T10:34:16.988Z,7.10
2018-01-04T10:36:46.072Z,7.10
2018-01-04T10:39:14.478Z,7.10
2018-01-04T10:41:42.789Z,7.20
2018-01-04T10:44:11.176Z,7.20
2018-01-04T10:46:39.494Z,7.30
2018-01-04T10:49:07.852Z,7.30
2018-01-04T10:51:36.072Z,7.50
2018-01-04T10:54:04.846Z,7.50
2018-01-04T10:56:33.188Z,7.50
2018-01-04T10:59:01.468Z,7.40
2018-01-04T11:01:29.692Z,7.50
2018-01-04T11:03:59.595Z,7.50
2018-01-04T11:06:27.875Z,7.40
2018-01-04T11:08:56.227Z,7.40
2018-01-04T11:11:25.298Z,7.40
2018-01-04T11:13:53.752Z,7.30
2018-01-04T11:16:22.211Z,7.30
2018-01-04T11:18:50.602Z,7.30
2018-01-04T11:21:18.886Z,7.40
2018-01-04T11:23:47.216Z,7.30
2018-01-04T11:26:16.999Z,7.30
2018-01-04T11:28:45.254Z,7.30
2018-01-04T11:31:14.674Z,7.20
2018-01-04T11:33:43.102Z,7.10
2018-01-04T11:36:12.327Z,7.20
2018-01-04T11:38:40.565Z,7.10
2018-01-04T11:41:08.838Z,7.20
2018-01-04T11:43:37.110Z,7.20
2018-01-04T11:46:05.346Z,7.20
2018-01-04T11:48:34.435Z,7.20
2018-01-04T11:51:02.705Z,7.20
2018-01-04T11:53:30.935Z,7.10
2018-01-04T11:55:59.210Z,7.10
2018-01-04T11:58:27.780Z,7.10
2018-01-04T12:00:56.090Z,7.10
2018-01-04T12:03:24.390Z,7.10
2018-01-04T12:05:52.730Z,7.20
2018-01-04T12:08:21.098Z,7.10
2018-01-04T12:10:49.398Z,7.10
2018-01-04T12:13:18.064Z,7.10
2018-01-04T12:15:46.341Z,7.10
2018-01-04T12:18:14.675Z,7.10
2018-01-04T12:20:42.968Z,7.20
2018-01-04T12:23:11.990Z,7.10
2018-01-04T12:25:40.277Z,7.10
2018-01-04T12:28:09.882Z,7.10
2018-01-04T12:30:38.247Z,7.10
2018-01-04T12:33:06.482Z,7.00
2018-01-04T12:35:34.772Z,7.10
2018-01-04T12:38:03.809Z,6.90
2018-01-04T12:40:32.158Z,6.90
2018-01-04T12:43:00.430Z,6.90
2018-01-04T12:45:29.520Z,6.80
2018-01-04T12:47:58.615Z,6.90
2018-01-04T12:50:27.648Z,6.80
2018-01-04T12:52:55.907Z,6.80
2018-01-04T12:55:24.223Z,6.70
2018-01-04T12:57:52.468Z,6.70
2018-01-04T13:00:20.899Z,6.70
2018-01-04T13:02:49.254Z,6.60
2018-01-04T13:05:17.536Z,6.60
2018-01-04T13:07:45.759Z,6.60
2018-01-04T13:10:14.915Z,6.50
2018-01-04T13:12:43.203Z,6.50
2018-01-04T13:15:11.477Z,6.50
2018-01-04T13:17:39.744Z,6.50
2018-01-04T13:20:08.178Z,6.60
2018-01-04T13:22:36.620Z,6.50
2018-01-04T13:25:04.878Z,6.40
2018-01-04T13:27:33.115Z,6.40
2018-01-04T13:30:01.520Z,6.40
2018-01-04T13:32:29.771Z,6.40
2018-01-04T13:34:57.995Z,6.50
2018-01-04T13:37:26.448Z,6.60
2018-01-04T13:39:55.361Z,6.50
2018-01-04T13:42:23.850Z,6.40
2018-01-04T13:44:52.088Z,6.40
2018-01-04T13:47:20.378Z,6.30
2018-01-04T13:49:48.641Z,6.10
2018-01-04T13:52:16.884Z,6.20
2018-01-04T13:54:45.971Z,6.30
2018-01-04T13:57:14.958Z,6.30
2018-01-04T13:59:43.951Z,6.30
2018-01-04T14:02:12.999Z,6.30
2018-01-04T14:04:41.550Z,6.30
2018-01-04T14:07:10.575Z,6.20
2018-01-04T14:09:39.026Z,6.20
2018-01-04T14:12:08.906Z,6.30
2018-01-04T14:14:37.452Z,6.30
2018-01-04T14:17:06.045Z,6.30
2018-01-04T14:19:34.415Z,6.20
2018-01-04T14:22:02.854Z,6.20
2018-01-04T14:24:31.159Z,6.30
2018-01-04T14:27:00.213Z,6.40
2018-01-04T14:29:28.468Z,6.40
2018-01-04T14:31:56.840Z,6.30
2018-01-04T14:34:25.914Z,6.30
2018-01-04T14:36:54.162Z,6.30
2018-01-04T14:39:23.408Z,6.10
2018-01-04T14:41:51.635Z,6.10
2018-01-04T14:44:20.678Z,6.30
2018-01-04T14:46:50.170Z,6.30
2018-01-04T14:49:18.528Z,6.20
2018-01-04T14:51:47.549Z,6.30
2018-01-04T14:54:15.850Z,6.20
2018-01-04T14:56:44.119Z,6.30
2018-01-04T14:59:12.506Z,6.30
2018-01-04T15:01:40.797Z,6.30
2018-01-04T15:04:09.082Z,6.20
2018-01-04T15:06:38.211Z,6.10
2018-01-04T15:09:06.458Z,6.10
2018-01-04T15:11:35.643Z,6.10
2018-01-04T15:14:03.888Z,6.00
2018-01-04T15:16:32.151Z,6.10
2018-01-04T15:19:00.390Z,6.10
2018-01-04T15:21:29.475Z,6.10
2018-01-04T15:23:57.861Z,6.10
2018-01-04T15:26:26.270Z,6.20
2018-01-04T15:28:54.638Z,6.10
2018-01-04T15:31:23.236Z,6.20
2018-01-04T15:33:51.627Z,6.10
2018-01-04T15:36:19.931Z,6.10
2018-01-04T15:38:48.286Z,6.00
2018-01-04T15:41:16.572Z,6.10
2018-01-04T15:43:44.803Z,6.10
2018-01-04T15:46:13.106Z,6.00
2018-01-04T15:48:41.406Z,6.00
2018-01-04T15:51:10.789Z,6.00
2018-01-04T15:53:39.074Z,6.00
2018-01-04T15:56:07.438Z,6.00
2018-01-04T15:58:35.700Z,6.00
2018-01-04T16:01:04.055Z,6.10
2018-01-04T16:03:33.087Z,6.10
2018-01-04T16:06:01.345Z,6.10
2018-01-04T16:08:29.828Z,6.20
2018-01-04T16:10:58.253Z,6.20
2018-01-04T16:13:26.638Z,6.20
2018-01-04T16:15:55.088Z,6.30
2018-01-04T16:18:23.287Z,6.20
2018-01-04T16:20:51.533Z,6.10
2018-01-04T16:23:19.806Z,6.10
2018-01-04T16:25:48.118Z,6.10
2018-01-04T16:28:16.483Z,6.20
2018-01-04T16:30:44.762Z,6.10
2018-01-04T16:33:13.046Z,6.10
2018-01-04T16:35:43.829Z,6.10
2018-01-04T16:38:13.066Z,6.20
2018-01-04T16:40:41.410Z,6.10
2018-01-04T16:43:09.758Z,6.10
2018-01-04T16:45:38.169Z,6.10
2018-01-04T16:48:06.488Z,6.00
2018-01-04T16:50:34.935Z,6.00
2018-01-04T16:53:03.322Z,6.00
2018-01-04T16:55:31.677Z,6.00
2018-01-04T16:57:59.990Z,6.00
2018-01-04T17:00:28.322Z,5.90
2018-01-04T17:02:57.445Z,5.90
2018-01-04T17:05:25.804Z,5.80
2018-01-04T17:07:54.206Z,5.80
2018-01-04T17:10:22.582Z,5.90
2018-01-04T17:12:50.857Z,5.90
2018-01-04T17:15:19.307Z,5.90
2018-01-04T17:17:48.346Z,5.90
2018-01-04T17:20:16.615Z,5.90
2018-01-04T17:22:44.892Z,5.80
2018-01-04T17:25:13.166Z,5.90
2018-01-04T17:27:41.575Z,5.90
2018-01-04T17:30:09.848Z,5.80
2018-01-04T17:32:38.074Z,5.80
2018-01-04T17:35:06.400Z,5.80
2018-01-04T17:37:35.896Z,5.90
2018-01-04T17:40:04.175Z,5.90
2018-01-04T17:42:33.529Z,5.90
2018-01-04T17:45:02.755Z,5.90
2018-01-04T17:47:31.210Z,5.90
2018-01-04T17:50:00.223Z,6.00
2018-01-04T17:52:28.638Z,6.00
2018-01-04T17:54:57.119Z,6.00
2018-01-04T17:57:25.429Z,5.90
2018-01-04T17:59:54.757Z,5.90
2018-01-04T18:02:23.234Z,5.90
2018-01-04T18:04:52.265Z,6.00
2018-01-04T18:07:20.593Z,6.00
2018-01-04T18:09:49.599Z,6.00
2018-01-04T18:12:17.890Z,6.00
2018-01-04T18:14:46.229Z,6.00
2018-01-04T18:17:15.230Z,6.10
2018-01-04T18:19:44.310Z,6.10
2018-01-04T18:22:13.426Z,6.10
2018-01-04T18:24:41.781Z,6.10
2018-01-04T18:27:10.090Z,6.10
2018-01-04T18:29:38.382Z,6.10
2018-01-04T18:32:06.654Z,6.20
2018-01-04T18:34:35.151Z,6.20
2018-01-04T18:37:03.418Z,6.10
2018-01-04T18:39:31.749Z,6.10
2018-01-04T18:42:00.778Z,6.20
2018-01-04T18:44:29.222Z,6.20
2018-01-04T18:46:57.611Z,6.20
2018-01-04T18:49:26.759Z,6.30
2018-01-04T18:51:55.218Z,6.20
2018-01-04T18:54:23.486Z,6.30
2018-01-04T18:56:51.710Z,6.30
2018-01-04T18:59:19.962Z,6.30
2018-01-04T19:01:48.210Z,6.30
2018-01-04T19:04:16.563Z,6.40
2018-01-04T19:06:44.970Z,6.40
2018-01-04T19:09:14.027Z,6.40
2018-01-04T19:11:42.284Z,6.40
2018-01-04T19:14:10.549Z,6.50
2018-01-04T19:16:38.784Z,6.50
2018-01-04T19:19:07.800Z,6.50
2018-01-04T19:21:36.162Z,6.50
2018-01-04T19:24:04.409Z,6.50
2018-01-04T19:26:32.722Z,6.50
2018-01-04T19:29:00.996Z,6.50
2018-01-04T19:31:29.557Z,6.50
2018-01-04T19:33:58.580Z,6.60
2018-01-04T19:36:26.883Z,6.60
2018-01-04T19:38:55.330Z,6.60
2018-01-04T19:41:23.811Z,6.60
2018-01-04T19:43:52.111Z,6.60
2018-01-04T19:46:20.502Z,6.60
2018-01-04T19:48:49.054Z,6.60
2018-01-04T19:51:17.329Z,6.60
2018-01-04T19:53:45.751Z,6.60
2018-01-04T19:56:14.723Z,6.70
2018-01-04T19:58:43.829Z,6.70
2018-01-04T20:01:12.959Z,6.70
2018-01-04T20:03:41.536Z,6.70
2018-01-04T20:06:09.877Z,6.80
2018-01-04T20:08:39.034Z,6.80
2018-01-04T20:11:08.282Z,6.80
2018-01-04T20:13:37.506Z,6.80
2018-01-04T20:16:05.968Z,6.80
2018-01-04T20:18:34.292Z,6.90
2018-01-04T20:21:02.578Z,7.00
2018-01-04T20:23:30.961Z,7.10
2018-01-04T20:25:59.255Z,7.00
2018-01-04T20:28:27.581Z,7.10
2018-01-04T20:30:55.816Z,7.10
2018-01-04T20:33:24.813Z,7.00
2018-01-04T20:35:53.878Z,6.90
2018-01-04T20:38:22.175Z,6.90
2018-01-04T20:40:51.220Z,7.00
2018-01-04T20:43:21.988Z,6.90
2018-01-04T20:45:50.238Z,6.90
2018-01-04T20:48:18.489Z,6.90
2018-01-04T20:50:47.078Z,6.90
2018-01-04T20:53:15.358Z,7.00
2018-01-04T20:55:43.654Z,7.00
2018-01-04T20:58:12.106Z,7.00
2018-01-04T21:00:40.421Z,7.00
2018-01-04T21:03:08.680Z,7.00
2018-01-04T21:05:37.247Z,7.10
2018-01-04T21:08:05.520Z,7.20
2018-01-04T21:10:34.609Z,7.10
2018-01-04T21:13:02.941Z,7.20
2018-01-04T21:15:31.341Z,7.20
2018-01-04T21:18:00.375Z,7.10
2018-01-04T21:20:28.717Z,7.10
2018-01-04T21:22:56.931Z,7.10
2018-01-04T21:25:25.322Z,7.10
2018-01-04T21:27:53.575Z,7.10
2018-01-04T21:30:22.416Z,7.10
2018-01-04T21:32:50.688Z,7.00
2018-01-04T21:35:18.987Z,7.00
2018-01-04T21:37:47.342Z,7.00
2018-01-04T21:40:15.636Z,7.00
2018-01-04T21:42:43.917Z,7.10
2018-01-04T21:45:12.247Z,7.00
2018-01-04T21:47:40.606Z,7.10
2018-01-04T21:50:08.875Z,7.10
2018-01-04T21:52:37.266Z,7.10
2018-01-04T21:55:05.558Z,7.10
2018-01-04T21:57:33.918Z,7.10
2018-01-04T22:00:02.200Z,7.10
2018-01-04T22:02:30.445Z,7.20
2018-01-04T22:04:59.584Z,7.50
2018-01-04T22:07:27.836Z,7.50
2018-01-04T22:09:56.066Z,7.80
2018-01-04T22:12:24.339Z,8.00
2018-01-04T22:14:52.577Z,8.20
2018-01-04T22:17:20.836Z,8.10
2018-01-04T22:19:49.931Z,8.30
2018-01-04T22:22:18.966Z,8.40
2018-01-04T22:24:47.262Z,8.30
2018-01-04T22:27:15.562Z,8.50
2018-01-04T22:32:07.626Z,8.40
2018-01-04T22:34:35.873Z,8.50
2018-01-04T22:37:04.269Z,8.60
2018-01-04T22:39:32.531Z,8.60
2018-01-04T22:42:00.782Z,8.60
2018-01-04T22:44:29.058Z,8.60
2018-01-04T22:46:58.878Z,8.50
2018-01-04T22:49:27.205Z,8.60
2018-01-04T22:51:55.447Z,8.50
2018-01-04T22:54:23.694Z,8.40
2018-01-04T22:56:52.070Z,8.60
2018-01-04T22:59:20.339Z,8.60
2018-01-04T23:01:49.331Z,8.50
2018-01-04T23:04:18.427Z,8.40
2018-01-04T23:06:47.592Z,8.40
2018-01-04T23:09:15.882Z,8.30
2018-01-04T23:11:44.230Z,8.40
2018-01-04T23:14:12.476Z,8.30
2018-01-04T23:16:40.764Z,8.20
2018-01-04T23:19:09.112Z,8.20
2018-01-04T23:21:38.122Z,8.10
2018-01-04T23:24:06.386Z,8.10
2018-01-04T23:26:35.499Z,8.20
2018-01-04T23:29:03.803Z,8.20
2018-01-04T23:31:32.092Z,8.20
2018-01-04T23:34:00.362Z,8.30
2018-01-04T23:36:28.590Z,8.20
2018-01-04T23:38:57.026Z,8.20
2018-01-04T23:41:25.332Z,8.30
2018-01-04T23:43:54.386Z,8.40
2018-01-04T23:46:22.639Z,8.40
2018-01-04T23:48:50.939Z,8.40
2018-01-04T23:51:19.291Z,8.50
2018-01-04T23:53:48.325Z,8.70
2018-01-04T23:56:17.371Z,8.60
2018-01-04T23:58:46.077Z,8.60
